Stations météo

Publicité
Embrun, France (7591): Température de l'air & dewpoint: 10.08.2017 17:00:00 - 16.08.2017 17:00:00 (CEST)Embrun, France (7591): Température de l'air 5cm: 10.08.2017 17:00:00 - 16.08.2017 17:00:00 (CEST)Embrun, France (7591): Température de l'air -20cm & Température de l'air -100cm: 10.08.2017 17:00:00 - 16.08.2017 17:00:00 (CEST)Embrun, France (7591): Vitesse du vent & gusts: 10.08.2017 17:00:00 - 16.08.2017 17:00:00 (CEST)Embrun, France (7591): Direction du vent: 10.08.2017 17:00:00 - 16.08.2017 17:00:00 (CEST)Embrun, France (7591): visibility: 10.08.2017 17:00:00 - 16.08.2017 17:00:00 (CEST)Embrun, France (7591): Ensoleillement: 10.08.2017 17:00:00 - 16.08.2017 17:00:00 (CEST)Embrun, France (7591): Quantités de précipitations: 10.08.2017 17:00:00 - 16.08.2017 17:00:00 (CEST)
Date & Time tt [°C] td [°C] tt 5cm [°C] tt -20cm [°C] tt -100cm [°C] ff [km/h] ff [knt] fx [km/h] fx [knt] dd vv [km] sd [min] rr [mm]
16.08.2017 17:00:00 23,8 11,8 17,9 21,0 19,1 29 16 59 32 WSW 20 0 0,2
16.08.2017 16:00:00 29,4 6,7 32,1 20,9 19,1 17 9 33 18 SW 20 24 0,0
16.08.2017 15:00:00 29,7 7,0 36,8 20,8 19,1 14 8 22 12 WSW 20 50 0,0
16.08.2017 14:00:00 28,9 9,1 37,7 20,8 19,1 11 6 24 13 SSW 20 60 0,0
16.08.2017 13:00:00 27,7 9,0 37,6 20,8 19,1 10 5 20 11 SSW 20 60 0,0
16.08.2017 12:00:00 25,8 10,8 33,9 20,8 19,1 7 4 16 9 SSW 20 60 0,0
16.08.2017 11:00:00 24,6 10,5 32,5 20,9 19,1 5 3 14 8 SE 20 60 0,0
16.08.2017 10:00:00 21,9 10,1 23,9 20,9 19,1 8 5 30 16 ENE 20 60 0,0
16.08.2017 09:00:00 19,4 9,8 13,3 21,0 19,1 13 7 29 15 ENE 20 53 0,0
16.08.2017 08:00:00 15,1 9,2 9,7 21,1 19,1 8 5 12 7 NE 20 0 0,0
16.08.2017 07:00:00 14,5 9,9 9,5 21,2 19,1 0 0 5 3 N 20 0 0,0
16.08.2017 06:00:00 15,1 10,1 9,7 21,2 19,1 0 0 6 3 N 20 0 0,0
16.08.2017 05:00:00 15,6 10,6 11,4 21,3 19,1 2 1 9 5 SE 20 0 0,0
16.08.2017 04:00:00 17,1 10,9 11,9 21,3 19,1 0 0 9 5 N 20 0 0,0
16.08.2017 03:00:00 18,4 11,2 14,2 21,3 19,1 3 2 20 11 S 20 0 0,0
16.08.2017 02:00:00 18,5 12,0 14,5 21,4 19,1 6 4 13 7 N 20 0 0,0
16.08.2017 01:00:00 18,7 10,3 15,5 21,4 19,1 9 5 24 13 W 20 0 0,0
16.08.2017 00:00:00 18,9 8,8 15,6 21,4 19,1 8 4 10 6 NE 20 0 0,0
15.08.2017 23:00:00 19,0 8,0 13,9 21,3 19,1 3 1 5 3 ESE 20 0 0,0
15.08.2017 22:00:00 20,5 7,5 15,5 21,3 19,1 2 1 16 8 ENE 20 0 0,0
15.08.2017 21:00:00 21,8 7,6 16,4 21,2 19,1 6 4 10 5 N 20 0 0,0
15.08.2017 20:00:00 24,4 8,4 22,5 21,1 19,1 3 2 13 7 SW 20 0 0,0
15.08.2017 19:00:00 25,8 6,9 25,8 21,0 19,1 7 4 18 10 SSW 20 13 0,0
15.08.2017 18:00:00 27,3 6,1 28,3 20,8 19,1 10 5 34 18 WSW 20 0 0,0
15.08.2017 17:00:00 28,6 7,8 30,1 20,7 19,1 12 6 26 14 SW 20 0 0,0
15.08.2017 16:00:00 29,2 5,9 32,1 20,6 19,1 13 7 27 15 W 20 24 0,0
15.08.2017 15:00:00 30,0 7,8 37,5 20,5 19,1 14 8 30 16 SSW 20 60 0,0
15.08.2017 14:00:00 28,8 9,5 38,3 20,5 19,2 15 8 29 16 SSW 20 60 0,0
15.08.2017 13:00:00 27,4 10,1 36,3 20,5 19,2 12 7 19 11 SSW 20 60 0,0
15.08.2017 12:00:00 25,5 10,1 34,9 20,5 19,1 8 4 15 8 SSW 20 60 0,0
15.08.2017 11:00:00 23,8 9,4 30,7 20,6 19,1 5 3 27 15 ENE 20 60 0,0
15.08.2017 10:00:00 21,0 9,9 22,7 20,6 19,1 17 9 39 21 NNE 20 60 0,0
15.08.2017 09:00:00 18,6 9,1 14,5 20,7 19,1 21 11 43 23 NNE 20 53 0,0
15.08.2017 08:00:00 15,4 8,8 12,9 20,8 19,2 16 9 30 16 NNE 20 0 0,0
15.08.2017 07:00:00 15,0 8,7 12,7 20,9 19,2 13 7 25 13 NNE 20 0 0,0
15.08.2017 06:00:00 15,7 8,7 12,4 20,9 19,2 16 9 28 15 NNE 20 0 0,0
15.08.2017 05:00:00 15,7 8,9 12,6 21,0 19,1 14 8 24 13 NNE 20 0 0,0
15.08.2017 04:00:00 15,1 9,0 11,7 21,0 19,2 12 6 22 12 NE 20 0 0,0
15.08.2017 03:00:00 15,6 9,0 11,6 21,1 19,2 6 4 11 6 NE 20 0 0,0
15.08.2017 02:00:00 16,7 9,1 13,6 21,0 19,2 10 6 17 9 NE 20 0 0,0
15.08.2017 01:00:00 17,2 9,1 11,5 21,0 19,2 8 5 15 8 NNE 20 0 0,0
15.08.2017 00:00:00 18,1 8,9 11,7 21,0 19,2 6 3 11 6 N 20 0 0,0
14.08.2017 23:00:00 19,3 9,2 13,3 20,9 19,2 6 3 9 5 WNW 20 0 0,0
14.08.2017 22:00:00 21,5 8,7 18,3 20,9 19,2 4 2 16 9 SW 20 0 0,0
14.08.2017 21:00:00 23,5 9,1 21,7 20,8 19,2 8 5 29 16 S 20 0 0,0
14.08.2017 20:00:00 25,7 7,3 24,5 20,6 19,2 12 7 29 16 WSW 20 37 0,0
14.08.2017 19:00:00 28,0 7,3 28,0 20,5 19,2 16 8 29 16 WSW 20 55 0,0
14.08.2017 18:00:00 28,5 7,1 33,0 20,3 19,2 16 9 32 17 SW 20 60 0,0
14.08.2017 17:00:00 29,0 7,0 32,1 20,1 19,2 13 7 34 18 SW 20 56 0,0
14.08.2017 16:00:00 29,3 8,4 37,7 20,0 19,2 15 8 37 20 WSW 20 60 0,0
14.08.2017 15:00:00 28,5 8,7 37,9 19,9 19,2 18 10 32 17 SSW 20 60 0,0
14.08.2017 14:00:00 27,8 9,1 37,6 19,8 19,2 16 9 27 15 SSW 20 60 0,0
14.08.2017 13:00:00 26,7 10,4 35,3 19,8 19,2 14 8 24 13 SSW 20 60 0,0
14.08.2017 12:00:00 25,0 11,2 32,7 19,9 19,2 8 4 16 9 S 20 60 0,0
14.08.2017 11:00:00 22,4 10,5 31,1 19,9 19,2 7 4 23 12 S 20 60 0,0
14.08.2017 10:00:00 20,9 9,2 22,0 20,0 19,2 11 6 32 17 NNE 20 60 0,0
14.08.2017 09:00:00 18,3 9,1 14,2 20,1 19,3 20 11 34 19 NE 20 55 0,0
14.08.2017 08:00:00 15,0 8,5 13,3 20,1 19,2 21 11 29 16 NNE 20 0 0,0
14.08.2017 07:00:00 15,1 8,3 13,0 20,2 19,3 16 9 30 16 NNE 20 0 0,0
14.08.2017 06:00:00 15,5 8,0 13,4 20,2 19,2 15 8 31 17 NNE 20 0 0,0
14.08.2017 05:00:00 15,4 8,4 12,9 20,3 19,3 15 8 28 15 NNE 20 0 0,0
14.08.2017 04:00:00 16,0 8,5 13,0 20,3 19,3 17 9 26 14 NNE 20 0 0,0
14.08.2017 03:00:00 15,6 8,8 13,1 20,4 19,3 14 7 21 11 NE 20 0 0,0
14.08.2017 02:00:00 15,9 9,3 12,3 20,4 19,3 7 4 12 7 NNE 20 0 0,0
14.08.2017 01:00:00 17,0 9,7 12,0 20,4 19,3 5 3 11 6 N 20 0 0,0
14.08.2017 00:00:00 18,3 9,4 13,5 20,3 19,3 5 3 9 5 WNW 20 0 0,0
13.08.2017 23:00:00 19,1 9,6 13,9 20,3 19,3 5 3 9 5 W 20 0 0,0
13.08.2017 22:00:00 19,6 10,0 13,9 20,2 19,3 3 2 8 4 WNW 20 0 0,0
13.08.2017 21:00:00 21,4 9,6 16,1 20,1 19,3 3 1 11 6 WNW 20 0 0,0
13.08.2017 20:00:00 24,5 8,8 23,5 20,0 19,3 5 3 16 9 SSW 20 37 0,0
13.08.2017 19:00:00 26,5 7,0 26,9 19,9 19,3 11 6 27 15 SW 20 60 0,0
13.08.2017 18:00:00 27,0 8,4 31,0 19,8 19,3 15 8 30 16 SSW 20 60 0,0
13.08.2017 17:00:00 26,3 9,6 28,9 19,7 19,3 15 8 29 16 SW 20 50 0,0
13.08.2017 16:00:00 25,5 10,1 30,9 19,6 19,3 16 9 31 17 SSW 20 58 0,0
13.08.2017 15:00:00 24,7 9,4 29,9 19,6 19,3 11 6 24 13 S 20 39 0,0
13.08.2017 14:00:00 21,8 9,3 27,7 19,6 19,3 7 4 14 8 SW 20 0 0,0
13.08.2017 13:00:00 21,7 8,9 27,1 19,6 19,4 8 4 13 7 SSE 20 51 0,0
13.08.2017 12:00:00 18,2 7,9 20,4 19,6 19,4 5 3 14 8 SE 20 18 0,0
13.08.2017 11:00:00 16,4 7,9 19,8 19,7 19,4 3 2 8 4 SW 20 11 0,0
13.08.2017 10:00:00 15,1 8,3 16,1 19,8 19,4 4 2 9 5 S 20 10 0,0
13.08.2017 09:00:00 12,9 9,0 12,4 19,9 19,4 3 2 11 6 SSE 20 0 0,0
13.08.2017 08:00:00 11,3 7,4 8,8 20,0 19,4 8 4 15 8 ENE 20 0 0,0
13.08.2017 07:00:00 10,6 6,9 7,2 20,1 19,4 8 4 13 7 NNE 20 0 0,0
13.08.2017 06:00:00 10,6 7,3 7,1 20,1 19,5 3 2 11 6 WNW 20 0 0,0
13.08.2017 05:00:00 10,8 7,1 7,7 20,2 19,5 6 3 13 7 NNE 20 0 0,0
13.08.2017 04:00:00 11,6 7,5 8,0 20,3 19,5 6 3 12 6 N 20 0 0,0
13.08.2017 03:00:00 11,8 7,7 7,1 20,3 19,5 4 2 7 4 NNE 20 0 0,0
13.08.2017 02:00:00 12,5 8,0 7,8 20,3 19,5 4 2 9 5 N 20 0 0,0
13.08.2017 01:00:00 13,3 7,9 8,3 20,4 19,5 3 2 9 5 NNE 20 0 0,0
13.08.2017 00:00:00 13,6 8,4 8,8 20,3 19,5 4 2 6 4 NNE 20 0 0,0
12.08.2017 23:00:00 15,0 8,2 9,9 20,3 19,5 5 3 6 4 N 20 0 0,0
12.08.2017 22:00:00 16,3 8,5 10,8 20,2 19,5 5 3 7 4 N 20 0 0,0
12.08.2017 21:00:00 18,6 8,8 14,1 20,1 19,5 2 1 15 8 N 20 0 0,0
12.08.2017 20:00:00 21,0 8,9 19,9 19,9 19,5 9 5 27 15 SSW 20 38 0,0
12.08.2017 19:00:00 23,1 8,4 24,4 19,8 19,5 16 9 32 17 SSW 20 60 0,0
12.08.2017 18:00:00 24,3 5,6 27,6 19,7 19,6 18 10 39 21 SSW 20 60 0,0
12.08.2017 17:00:00 24,2 4,5 30,5 19,5 19,6 18 10 34 19 SSW 20 60 0,0
12.08.2017 16:00:00 23,9 4,8 33,0 19,4 19,5 17 9 32 17 SSW 20 60 0,0
12.08.2017 15:00:00 23,9 4,8 34,0 19,3 19,6 12 6 25 14 SSW 20 60 0,0
12.08.2017 14:00:00 22,5 4,5 32,1 19,3 19,6 13 7 29 15 SSW 20 60 0,0
12.08.2017 13:00:00 20,9 4,4 30,0 19,3 19,6 13 7 24 13 SSW 20 60 0,0
12.08.2017 12:00:00 19,1 5,2 28,5 19,4 19,6 9 5 18 10 S 20 60 0,0
12.08.2017 11:00:00 17,9 5,5 24,8 19,5 19,6 7 4 24 13 S 20 60 0,0
12.08.2017 10:00:00 14,8 5,3 15,5 19,6 19,6 10 5 18 10 SSW 20 60 0,0
12.08.2017 09:00:00 12,1 5,9 5,2 19,7 19,6 9 5 16 9 S 20 56 0,0
12.08.2017 08:00:00 7,2 4,2 4,1 19,8 19,6 4 2 16 8 ESE 20 0 0,0
12.08.2017 07:00:00 7,4 4,5 3,8 19,9 19,6 9 5 25 13 NNE 20 0 0,0
12.08.2017 06:00:00 7,0 4,8 2,9 20,0 19,6 14 8 24 13 NNE 20 0 0,0
12.08.2017 05:00:00 6,7 4,9 1,4 20,2 19,6 5 3 10 6 NNE 20 0 0,0
12.08.2017 04:00:00 7,3 5,4 2,6 20,3 19,6 3 1 9 5 NNW 20 0 0,0
12.08.2017 03:00:00 7,5 5,5 3,8 20,4 19,6 4 2 11 6 SE 20 0 0,0
12.08.2017 02:00:00 8,2 5,7 4,0 20,4 19,6 6 4 14 8 NE 20 0 0,0
12.08.2017 01:00:00 8,9 5,8 4,5 20,5 19,6 4 2 8 4 N 20 0 0,0
12.08.2017 00:00:00 10,2 6,2 5,2 20,5 19,6 3 2 8 4 SW 20 0 0,0
11.08.2017 23:00:00 10,9 6,0 6,0 20,6 19,6 3 2 11 6 ENE 20 0 0,0
11.08.2017 22:00:00 11,9 6,4 7,5 20,6 19,7 4 2 9 5 NNW 20 0 0,0
11.08.2017 21:00:00 13,6 6,7 11,1 20,6 19,7 4 2 16 9 W 20 0 0,0
11.08.2017 20:00:00 14,8 6,6 14,6 20,6 19,7 7 4 34 18 S 20 1 0,0
11.08.2017 19:00:00 16,4 5,6 16,5 20,5 19,7 13 7 26 14 SSW 20 16 0,0
11.08.2017 18:00:00 17,4 5,7 18,8 20,5 19,7 10 6 30 16 SSW 20 48 0,0
11.08.2017 17:00:00 16,1 6,2 17,6 20,5 19,7 16 9 39 21 S 20 12 0,0
11.08.2017 16:00:00 16,3 5,6 17,4 20,4 19,7 8 4 31 17 SW 20 0 0,0
11.08.2017 15:00:00 17,3 4,3 20,6 20,4 19,7 15 8 36 19 SSW 20 47 0,0
11.08.2017 14:00:00 16,2 6,3 19,5 20,4 19,7 4 2 29 16 S 20 13 0,0
11.08.2017 13:00:00 16,3 5,0 18,6 20,5 19,7 10 5 37 20 SW 20 11 0,0
11.08.2017 12:00:00 15,1 6,1 19,7 20,6 19,7 14 8 36 19 SW 20 28 0,0
11.08.2017 11:00:00 15,9 5,8 17,7 20,7 19,7 11 6 24 13 SSW 20 43 0,0
11.08.2017 10:00:00 12,9 6,2 14,4 20,8 19,7 3 2 9 5 SSE 20 0 0,0
11.08.2017 09:00:00 11,1 7,4 10,7 20,9 19,7 0 0 5 3 N 20 0 0,0
11.08.2017 08:00:00 10,2 6,9 7,2 21,0 19,7 0 0 5 3 N 20 0 0,0
11.08.2017 07:00:00 8,6 6,2 4,0 21,1 19,7 2 1 4 2 NE 20 0 0,0
11.08.2017 06:00:00 9,2 5,7 5,3 21,2 19,7 0 0 5 3 N 20 0 0,0
11.08.2017 05:00:00 9,7 5,9 5,0 21,3 19,7 3 2 5 3 NE 20 0 0,0
11.08.2017 04:00:00 9,8 6,0 5,0 21,4 19,7 2 1 6 3 N 20 0 0,0
11.08.2017 03:00:00 10,5 6,1 7,2 21,5 19,7 2 1 13 7 S 20 0 0,0
11.08.2017 02:00:00 11,9 6,0 7,5 21,5 19,7 4 2 8 5 NNW 20 0 0,0
11.08.2017 01:00:00 12,7 5,6 10,2 21,6 19,7 5 3 14 7 SSW 20 0 0,0
11.08.2017 00:00:00 13,8 5,2 11,4 21,6 19,7 5 3 15 8 S 20 0 0,0
10.08.2017 23:00:00 14,6 5,1 12,9 21,6 19,7 5 3 27 15 S 20 0 0,0
10.08.2017 22:00:00 16,0 5,3 15,4 21,6 19,8 14 8 31 17 SW 20 0 0,0
10.08.2017 21:00:00 16,8 5,7 16,0 21,5 19,8 16 9 33 18 SW 20 0 0,0
10.08.2017 20:00:00 18,4 6,2 18,2 21,5 19,8 19 10 32 18 SSW 20 39 0,0
10.08.2017 19:00:00 20,6 6,5 22,3 21,4 19,8 16 8 32 18 SSW 20 60 0,0
10.08.2017 18:00:00 21,6 5,1 26,4 21,3 19,8 16 9 34 18 SSW 20 60 0,0
10.08.2017 17:00:00 21,3 6,8 27,7 21,3 19,7 18 10 31 17 SW 20 60 0,0

tt = Température de l'air
td = dewpoint
tt 5cm = Température de l'air 5cm
tt -20cm = Température de l'air -20cm
tt -100cm = Température de l'air -100cm
ff = Vitesse du vent
fx = gusts
dd = Direction du vent
vv = visibility
sd = Ensoleillement
rr = Quantités de précipitations

stations d'obs. à proximité